WetterOnline ( https://www.wetteronline.de )

Wetter aktuell Stuttgart

Aktuelles Wetter: Schnarrenberg/Stuttgart (315m)

6-stündlich | Neueste Meldungen
Ortszeit Temperatur Wetter
Sa, 25.06. 14:00 24.8° C fast wolkenlos
Sa, 25.06. 8:00 17.5° C wolkenlos
Sa, 25.06. 2:00 15.2° C wolkenlos
Fr, 24.06. 20:00 17.5° C leichter Regen
Fr, 24.06. 14:00 23.2° C leichter Regen
Fr, 24.06. 8:00 20.1° C leicht bewölkt
Fr, 24.06. 2:00 17.5° C leichter Regen
Do, 23.06. 20:00 28.5° C wolkenlos
Ortszeit Temperatur Wetter
Sa, 25.06. 15:30 25.6° C wolkenlos
Sa, 25.06. 15:10 26.0° C wolkenlos
Sa, 25.06. 15:00 25.0° C wolkenlos
Sa, 25.06. 14:50 25.0° C wolkenlos
Sa, 25.06. 14:40 24.2° C fast wolkenlos
Sa, 25.06. 14:30 24.5° C wolkenlos
Sa, 25.06. 14:00 24.8° C fast wolkenlos
Sa, 25.06. 13:30 24.2° C leicht bewölkt
Sa, 25.06. 13:00 22.7° C leicht bewölkt
Sa, 25.06. 12:30 22.8° C wolkig
Ortszeit Relative Feuchte Sichtweite
Sa, 25.06. 14:00 50% >70 km
Sa, 25.06. 8:00 77% >70 km
Sa, 25.06. 2:00 90% 60 km
Fr, 24.06. 20:00 87% 60 km
Fr, 24.06. 14:00 58% 60 km
Fr, 24.06. 8:00 75% >70 km
Fr, 24.06. 2:00 94% 26 km
Do, 23.06. 20:00 44% 65 km
Ortszeit Relative Feuchte Sichtweite
Sa, 25.06. 15:30 42% >70 km
Sa, 25.06. 15:10 41% -
Sa, 25.06. 15:00 39% 55 km
Sa, 25.06. 14:50 39% -
Sa, 25.06. 14:40 43% -
Sa, 25.06. 14:30 44% 55 km
Sa, 25.06. 14:00 50% >70 km
Sa, 25.06. 13:30 46% >70 km
Sa, 25.06. 13:00 55% 60 km
Sa, 25.06. 12:30 55% >70 km
Ortszeit Niederschlagsmenge Niederschlagsart
Sa, 25.06. 14:00 0.0 l/m2 in 6 Std. -
Sa, 25.06. 8:00 1 l/m2 in 12 Std. -
Sa, 25.06. 2:00 1 l/m2 in 6 Std. Regen
Fr, 24.06. 20:00 5 l/m2 in 12 Std. Regen
Fr, 24.06. 14:00 0.1 l/m2 in 6 Std. Regen
Fr, 24.06. 8:00 4 l/m2 in 12 Std. Regen
Fr, 24.06. 2:00 3 l/m2 in 6 Std. Regen
Do, 23.06. 20:00 0.0 l/m2 in 12 Std. -
Ortszeit Niederschlagsmenge Niederschlagsart
Sa, 25.06. 15:30 0.0 l/m2 in 1 Std. -
Sa, 25.06. 15:10 keine Meldung -
Sa, 25.06. 15:00 0.0 l/m2 in 1 Std. -
Sa, 25.06. 14:50 keine Meldung -
Sa, 25.06. 14:40 keine Meldung -
Sa, 25.06. 14:30 0.0 l/m2 in 1 Std. -
Sa, 25.06. 14:00 0.0 l/m2 in 1 Std. -
Sa, 25.06. 13:30 0.0 l/m2 in 1 Std. -
Sa, 25.06. 13:00 0.0 l/m2 in 1 Std. -
Sa, 25.06. 12:30 0.0 l/m2 in 1 Std. -
Ortszeit Stärke Spitze Richtung
km/h Bft. km/h Grad Sektor
Sa, 25.06. 14:00 9 2 24 130° SO
Sa, 25.06. 8:00 7 2 18 130° SO
Sa, 25.06. 2:00 9 2 26 170° S
Fr, 24.06. 20:00 13 3 37 240° SW
Fr, 24.06. 14:00 14 3 25 310° NW
Fr, 24.06. 8:00 9 2 24 150° SO
Fr, 24.06. 2:00 4 1 36 200° S
Do, 23.06. 20:00 11 2 25 80° O
Ortszeit Stärke Spitze Richtung
km/h Bft. km/h Grad Sektor
Sa, 25.06. 15:30 7 2 22 120° SO
Sa, 25.06. 15:10 11 2 - 100° O
Sa, 25.06. 15:00 13 3 22 130° SO
Sa, 25.06. 14:50 13 3 - 130° SO
Sa, 25.06. 14:40 7 2 - 100° O
Sa, 25.06. 14:30 14 3 18 120° SO
Sa, 25.06. 14:00 9 2 24 130° SO
Sa, 25.06. 13:30 9 2 22 150° SO
Sa, 25.06. 13:00 7 2 22 160° S
Sa, 25.06. 12:30 7 2 22 120° SO
Ortszeit Untergrenze Bedeckung Gattung
total tief tief mittel hoch
Sa, 25.06. 14:00 1380 m 1/8 1/8 - - -
Sa, 25.06. 8:00 - 0/8 0/8 - - -
Sa, 25.06. 2:00 - 0/8 0/8 - - -
Fr, 24.06. 20:00 2400 m 7/8 7/8 - - -
Fr, 24.06. 14:00 1170 m 8/8 2/8 - - -
Fr, 24.06. 8:00 7200 m 7/8 0/8 - - -
Fr, 24.06. 2:00 2100 m 7/8 1/8 - - -
Do, 23.06. 20:00 - 0/8 0/8 - - -
Ortszeit Bedeckungsgrad in Achtel und Wolkenuntergrenze
Sa, 25.06. 15:30 keine Wolken
Sa, 25.06. 15:10 keine Wolken
Sa, 25.06. 15:00 keine Wolken
Sa, 25.06. 14:50 keine Wolken
Sa, 25.06. 14:40 1
Sa, 25.06. 14:30 keine Wolken
Sa, 25.06. 14:00 1(1380m)
Sa, 25.06. 13:30 2(1260m)
Sa, 25.06. 13:00 4(1230m)
Sa, 25.06. 12:30 5(1170m)
Ortszeit Luftdruck NN (hPa) Tendenz (hPa in 3 Std.)
Sa, 25.06. 14:00 1013 - 1,1
Sa, 25.06. 8:00 1015 + 0,9
Sa, 25.06. 2:00 1014 + 0,8
Fr, 24.06. 20:00 1011 + 1,3
Fr, 24.06. 14:00 1008 - 0,7
Fr, 24.06. 8:00 1010 - 0,5
Fr, 24.06. 2:00 1012 + 2,6
Do, 23.06. 20:00 1007 - 1,4
Ortszeit Luftdruck NN (hPa) Tendenz (hPa in 3 Std.)
Sa, 25.06. 15:30 1012 - 1,4
Sa, 25.06. 15:10 1012 keine Meldung
Sa, 25.06. 15:00 1012 - 1,2
Sa, 25.06. 14:50 1012 keine Meldung
Sa, 25.06. 14:40 1012 keine Meldung
Sa, 25.06. 14:30 1013 - 1,1
Sa, 25.06. 14:00 1013 - 1,1
Sa, 25.06. 13:30 1013 - 1,0
Sa, 25.06. 13:00 1013 - 1,1
Sa, 25.06. 12:30 1014 - 0,9
Ortszeit Schneehöhe (cm)
Sa, 25.06. 14:00 0
Sa, 25.06. 8:00 0
Sa, 25.06. 2:00 0
Fr, 24.06. 20:00 0
Fr, 24.06. 14:00 0
Fr, 24.06. 8:00 0
Fr, 24.06. 2:00 0
Do, 23.06. 20:00 0
Ortszeit Schneehöhe (cm)
Sa, 25.06. 15:30 0
Sa, 25.06. 15:10 0
Sa, 25.06. 15:00 0
Sa, 25.06. 14:50 0
Sa, 25.06. 14:40 0
Sa, 25.06. 14:30 0
Sa, 25.06. 14:00 0
Sa, 25.06. 13:30 0
Sa, 25.06. 13:00 0
Sa, 25.06. 12:30 0
Link zu dieser Seite / Seite empfehlen

Das Wetter in ...